AXM6072 WBGR-WBKK
Flight info
| Callsign | AXM6072 |
|---|---|
| Flight time | 0h 31m |
| Altitude | 19000 |
| Route | GODOM1A GODOM DCT BRU DCT DULIM DULIM2B |
| Aircraft | A20N/M-SDE2E3FGHIRWXY/LB1 |
Departure
| Time | 2026-05-04 14:46 |
|---|---|
| Airport | Miri Airport (WBGR) |
Arrival
| Time | 2026-05-04 15:17 |
|---|---|
| Airport | Kota Kinabalu International Airport (WBKK) |
| Time | Latitude | Longitude | Altitude | Speed | Heading |
|---|---|---|---|---|---|
| 2026-05-04 14:29 | 4.32478 | 113.98421 | 62 ft | 0 kts | 295° |
| 2026-05-04 14:34 | 4.32478 | 113.98422 | 62 ft | 1 kts | 295° |
| 2026-05-04 14:34 | 4.32475 | 113.98427 | 54 ft | 1 kts | 295° |
| 2026-05-04 14:34 | 4.32473 | 113.98433 | 55 ft | 1 kts | 295° |
| 2026-05-04 14:35 | 4.32470 | 113.98438 | 56 ft | 1 kts | 295° |
| 2026-05-04 14:35 | 4.32467 | 113.98445 | 62 ft | 1 kts | 294° |
| 2026-05-04 14:35 | 4.32464 | 113.98452 | 53 ft | 1 kts | 288° |
| 2026-05-04 14:35 | 4.32462 | 113.98459 | 53 ft | 1 kts | 282° |
| 2026-05-04 14:36 | 4.32460 | 113.98467 | 53 ft | 1 kts | 277° |
| 2026-05-04 14:36 | 4.32459 | 113.98474 | 56 ft | 1 kts | 271° |
| 2026-05-04 14:36 | 4.32459 | 113.98482 | 57 ft | 1 kts | 265° |
| 2026-05-04 14:36 | 4.32462 | 113.98496 | 53 ft | 2 kts | 251° |
| 2026-05-04 14:37 | 4.32467 | 113.98509 | 53 ft | 2 kts | 238° |
| 2026-05-04 14:37 | 4.32476 | 113.98521 | 58 ft | 2 kts | 224° |
| 2026-05-04 14:37 | 4.32479 | 113.98524 | 53 ft | 0 kts | 219° |
| 2026-05-04 14:38 | 4.32477 | 113.98523 | 58 ft | 1 kts | 216° |
| 2026-05-04 14:39 | 4.32463 | 113.98516 | 62 ft | 4 kts | 207° |
| 2026-05-04 14:39 | 4.32419 | 113.98495 | 62 ft | 9 kts | 201° |
| 2026-05-04 14:39 | 4.32350 | 113.98466 | 61 ft | 12 kts | 204° |
| 2026-05-04 14:40 | 4.32236 | 113.98446 | 60 ft | 8 kts | 133° |
| 2026-05-04 14:40 | 4.32209 | 113.98478 | 63 ft | 6 kts | 136° |
| 2026-05-04 14:40 | 4.32173 | 113.98479 | 66 ft | 7 kts | 204° |
| 2026-05-04 14:40 | 4.32121 | 113.98455 | 63 ft | 10 kts | 204° |
| 2026-05-04 14:41 | 4.32048 | 113.98422 | 61 ft | 13 kts | 204° |
| 2026-05-04 14:41 | 4.31966 | 113.98381 | 65 ft | 14 kts | 206° |
| 2026-05-04 14:41 | 4.31785 | 113.98299 | 70 ft | 15 kts | 204° |
| 2026-05-04 14:42 | 4.31579 | 113.98203 | 66 ft | 17 kts | 206° |
| 2026-05-04 14:42 | 4.31487 | 113.98162 | 68 ft | 15 kts | 203° |
| 2026-05-04 14:42 | 4.31399 | 113.98120 | 61 ft | 13 kts | 205° |
| 2026-05-04 14:43 | 4.31323 | 113.98085 | 68 ft | 11 kts | 206° |
| 2026-05-04 14:43 | 4.31305 | 113.98076 | 63 ft | 2 kts | 206° |
| 2026-05-04 14:43 | 4.31281 | 113.98066 | 66 ft | 5 kts | 200° |
| 2026-05-04 14:43 | 4.31239 | 113.98064 | 66 ft | 6 kts | 166° |
| 2026-05-04 14:44 | 4.31206 | 113.98091 | 63 ft | 8 kts | 122° |
| 2026-05-04 14:44 | 4.31186 | 113.98149 | 66 ft | 10 kts | 109° |
| 2026-05-04 14:44 | 4.31187 | 113.98211 | 62 ft | 10 kts | 46° |
| 2026-05-04 14:44 | 4.31220 | 113.98233 | 61 ft | 0 kts | 25° |
| 2026-05-04 14:45 | 4.31248 | 113.98246 | 63 ft | 28 kts | 25° |
| 2026-05-04 14:45 | 4.31694 | 113.98455 | 64 ft | 110 kts | 25° |
| 2026-05-04 14:46 | 4.32565 | 113.98856 | 299 ft | 148 kts | 26° |
| 2026-05-04 14:46 | 4.33546 | 113.99280 | 963 ft | 157 kts | 26° |
| 2026-05-04 14:46 | 4.34544 | 113.99743 | 1769 ft | 159 kts | 25° |
| 2026-05-04 14:46 | 4.35508 | 114.00354 | 2376 ft | 174 kts | 51° |
| 2026-05-04 14:47 | 4.36129 | 114.01461 | 2861 ft | 192 kts | 66° |
| 2026-05-04 14:47 | 4.36658 | 114.02779 | 3274 ft | 216 kts | 69° |
| 2026-05-04 14:47 | 4.37174 | 114.04140 | 3742 ft | 236 kts | 68° |
| 2026-05-04 14:47 | 4.37802 | 114.05735 | 4276 ft | 257 kts | 67° |
| 2026-05-04 14:48 | 4.38444 | 114.07301 | 4887 ft | 268 kts | 66° |
| 2026-05-04 14:48 | 4.39103 | 114.08868 | 5713 ft | 270 kts | 66° |
| 2026-05-04 14:48 | 4.39844 | 114.10613 | 6605 ft | 274 kts | 66° |
| 2026-05-04 14:48 | 4.40599 | 114.12380 | 7443 ft | 277 kts | 66° |
| 2026-05-04 14:49 | 4.41361 | 114.14161 | 8285 ft | 280 kts | 66° |
| 2026-05-04 14:49 | 4.42133 | 114.15965 | 9128 ft | 283 kts | 66° |
| 2026-05-04 14:49 | 4.42935 | 114.17778 | 9954 ft | 286 kts | 63° |
| 2026-05-04 14:49 | 4.43966 | 114.19515 | 10485 ft | 300 kts | 58° |
| 2026-05-04 14:50 | 4.45133 | 114.21351 | 10710 ft | 324 kts | 58° |
| 2026-05-04 14:50 | 4.46377 | 114.23310 | 11060 ft | 339 kts | 58° |
| 2026-05-04 14:50 | 4.47649 | 114.25318 | 11774 ft | 343 kts | 58° |
| 2026-05-04 14:50 | 4.48931 | 114.27346 | 12504 ft | 346 kts | 58° |
| 2026-05-04 14:51 | 4.50226 | 114.29397 | 13219 ft | 350 kts | 58° |
| 2026-05-04 14:51 | 4.51534 | 114.31470 | 13910 ft | 354 kts | 58° |
| 2026-05-04 14:51 | 4.52852 | 114.33561 | 14528 ft | 357 kts | 58° |
| 2026-05-04 14:51 | 4.54187 | 114.35678 | 15138 ft | 361 kts | 58° |
| 2026-05-04 14:52 | 4.55532 | 114.37813 | 15741 ft | 364 kts | 58° |
| 2026-05-04 14:52 | 4.56893 | 114.39971 | 16331 ft | 368 kts | 58° |
| 2026-05-04 14:52 | 4.58185 | 114.42021 | 16881 ft | 371 kts | 58° |
| 2026-05-04 14:52 | 4.59523 | 114.44145 | 17428 ft | 375 kts | 58° |
| 2026-05-04 14:53 | 4.60920 | 114.46361 | 17992 ft | 378 kts | 58° |
| 2026-05-04 14:53 | 4.62332 | 114.48603 | 18494 ft | 382 kts | 59° |
| 2026-05-04 14:53 | 4.63754 | 114.50861 | 18622 ft | 383 kts | 59° |
| 2026-05-04 14:53 | 4.65180 | 114.53124 | 18719 ft | 383 kts | 59° |
| 2026-05-04 14:54 | 4.66605 | 114.55386 | 18815 ft | 384 kts | 59° |
| 2026-05-04 14:54 | 4.68032 | 114.57653 | 18905 ft | 385 kts | 59° |
| 2026-05-04 14:54 | 4.69461 | 114.59923 | 18942 ft | 385 kts | 59° |
| 2026-05-04 14:54 | 4.70872 | 114.62163 | 18938 ft | 385 kts | 59° |
| 2026-05-04 14:55 | 4.72299 | 114.64429 | 18934 ft | 385 kts | 59° |
| 2026-05-04 14:55 | 4.73728 | 114.66699 | 18933 ft | 385 kts | 59° |
| 2026-05-04 14:55 | 4.75160 | 114.68975 | 18928 ft | 385 kts | 59° |
| 2026-05-04 14:55 | 4.76587 | 114.71242 | 18941 ft | 385 kts | 59° |
| 2026-05-04 14:56 | 4.78035 | 114.73544 | 18932 ft | 385 kts | 59° |
| 2026-05-04 14:56 | 4.79444 | 114.75783 | 18940 ft | 385 kts | 59° |
| 2026-05-04 14:56 | 4.80872 | 114.78053 | 18933 ft | 385 kts | 59° |
| 2026-05-04 14:56 | 4.82301 | 114.80325 | 18937 ft | 385 kts | 59° |
| 2026-05-04 14:57 | 4.83728 | 114.82594 | 18939 ft | 385 kts | 59° |
| 2026-05-04 14:57 | 4.85156 | 114.84864 | 18931 ft | 385 kts | 59° |
| 2026-05-04 14:57 | 4.86583 | 114.87132 | 18944 ft | 385 kts | 58° |
| 2026-05-04 14:57 | 4.88148 | 114.89314 | 18936 ft | 386 kts | 51° |
| 2026-05-04 14:58 | 4.89927 | 114.91329 | 18937 ft | 386 kts | 49° |
| 2026-05-04 14:58 | 4.91715 | 114.93340 | 18941 ft | 386 kts | 49° |
| 2026-05-04 14:58 | 4.93495 | 114.95350 | 18940 ft | 386 kts | 50° |
| 2026-05-04 14:58 | 4.94675 | 114.96685 | 18935 ft | 386 kts | 50° |
| 2026-05-04 14:59 | 4.97057 | 114.99381 | 18939 ft | 386 kts | 50° |
| 2026-05-04 14:59 | 4.98836 | 115.01393 | 18942 ft | 386 kts | 50° |
| 2026-05-04 14:59 | 5.02394 | 115.05418 | 18932 ft | 386 kts | 50° |
| 2026-05-04 15:00 | 5.04172 | 115.07430 | 18931 ft | 386 kts | 50° |
| 2026-05-04 15:00 | 5.05951 | 115.09442 | 18932 ft | 386 kts | 50° |
| 2026-05-04 15:00 | 5.07731 | 115.11456 | 18938 ft | 386 kts | 50° |
| 2026-05-04 15:01 | 5.11291 | 115.15483 | 18908 ft | 386 kts | 50° |
| 2026-05-04 15:01 | 5.13072 | 115.17499 | 18716 ft | 385 kts | 50° |
| 2026-05-04 15:01 | 5.14820 | 115.19477 | 18502 ft | 383 kts | 50° |
| 2026-05-04 15:01 | 5.16582 | 115.21471 | 18279 ft | 381 kts | 50° |
| 2026-05-04 15:02 | 5.18336 | 115.23456 | 18031 ft | 380 kts | 50° |
| 2026-05-04 15:02 | 5.20083 | 115.25434 | 17778 ft | 378 kts | 50° |
| 2026-05-04 15:02 | 5.21823 | 115.27403 | 17520 ft | 376 kts | 50° |
| 2026-05-04 15:02 | 5.23556 | 115.29366 | 17266 ft | 375 kts | 50° |
| 2026-05-04 15:03 | 5.25278 | 115.31315 | 17025 ft | 373 kts | 50° |
| 2026-05-04 15:03 | 5.26997 | 115.33263 | 16775 ft | 372 kts | 50° |
| 2026-05-04 15:03 | 5.28705 | 115.35197 | 16529 ft | 370 kts | 50° |
| 2026-05-04 15:03 | 5.30406 | 115.37124 | 16286 ft | 368 kts | 50° |
| 2026-05-04 15:04 | 5.32106 | 115.39049 | 15915 ft | 369 kts | 50° |
| 2026-05-04 15:04 | 5.33809 | 115.40978 | 15347 ft | 370 kts | 50° |
| 2026-05-04 15:04 | 5.35513 | 115.42910 | 14774 ft | 369 kts | 50° |
| 2026-05-04 15:04 | 5.37070 | 115.44674 | 14303 ft | 367 kts | 50° |
| 2026-05-04 15:05 | 5.38759 | 115.46587 | 13753 ft | 365 kts | 50° |
| 2026-05-04 15:05 | 5.40442 | 115.48494 | 13170 ft | 362 kts | 50° |
| 2026-05-04 15:05 | 5.42031 | 115.50296 | 12667 ft | 358 kts | 50° |
| 2026-05-04 15:05 | 5.43664 | 115.52165 | 12198 ft | 353 kts | 52° |
| 2026-05-04 15:06 | 5.45068 | 115.54165 | 11685 ft | 349 kts | 60° |
| 2026-05-04 15:06 | 5.46155 | 115.56329 | 11161 ft | 346 kts | 68° |
| 2026-05-04 15:06 | 5.47077 | 115.58550 | 10612 ft | 344 kts | 67° |
| 2026-05-04 15:07 | 5.48882 | 115.62811 | 10278 ft | 318 kts | 67° |
| 2026-05-04 15:07 | 5.49732 | 115.64809 | 10159 ft | 304 kts | 67° |
| 2026-05-04 15:07 | 5.50546 | 115.66720 | 10018 ft | 293 kts | 67° |
| 2026-05-04 15:07 | 5.51339 | 115.68586 | 9663 ft | 290 kts | 67° |
| 2026-05-04 15:08 | 5.51861 | 115.69815 | 9375 ft | 289 kts | 67° |
| 2026-05-04 15:08 | 5.52647 | 115.71666 | 8954 ft | 288 kts | 67° |
| 2026-05-04 15:08 | 5.53429 | 115.73508 | 8544 ft | 286 kts | 67° |
| 2026-05-04 15:08 | 5.54210 | 115.75345 | 8131 ft | 285 kts | 66° |
| 2026-05-04 15:09 | 5.55148 | 115.77086 | 7751 ft | 283 kts | 58° |
| 2026-05-04 15:09 | 5.56199 | 115.78747 | 7384 ft | 281 kts | 58° |
| 2026-05-04 15:09 | 5.57237 | 115.80403 | 7007 ft | 279 kts | 58° |
| 2026-05-04 15:10 | 5.59289 | 115.83696 | 6270 ft | 277 kts | 58° |
| 2026-05-04 15:10 | 5.60308 | 115.85332 | 5891 ft | 276 kts | 58° |
| 2026-05-04 15:10 | 5.62327 | 115.88570 | 5165 ft | 272 kts | 58° |
| 2026-05-04 15:11 | 5.63326 | 115.90173 | 4808 ft | 270 kts | 58° |
| 2026-05-04 15:11 | 5.64324 | 115.91767 | 4439 ft | 269 kts | 56° |
| 2026-05-04 15:11 | 5.65643 | 115.93038 | 4274 ft | 260 kts | 32° |
| 2026-05-04 15:11 | 5.67213 | 115.93866 | 4156 ft | 250 kts | 24° |
| 2026-05-04 15:12 | 5.68785 | 115.94523 | 4043 ft | 240 kts | 22° |
| 2026-05-04 15:12 | 5.70291 | 115.95160 | 3934 ft | 230 kts | 23° |
| 2026-05-04 15:12 | 5.71746 | 115.95777 | 3825 ft | 228 kts | 23° |
| 2026-05-04 15:12 | 5.73202 | 115.96396 | 3681 ft | 225 kts | 23° |
| 2026-05-04 15:13 | 5.74626 | 115.97000 | 3440 ft | 220 kts | 23° |
| 2026-05-04 15:13 | 5.76026 | 115.97595 | 3208 ft | 216 kts | 23° |
| 2026-05-04 15:13 | 5.77376 | 115.98168 | 2966 ft | 206 kts | 23° |
| 2026-05-04 15:13 | 5.78669 | 115.98717 | 2697 ft | 198 kts | 24° |
| 2026-05-04 15:14 | 5.79916 | 115.99248 | 2444 ft | 192 kts | 23° |
| 2026-05-04 15:14 | 5.81101 | 115.99751 | 2204 ft | 177 kts | 23° |
| 2026-05-04 15:14 | 5.82184 | 116.00211 | 1979 ft | 163 kts | 24° |
| 2026-05-04 15:14 | 5.83189 | 116.00638 | 1789 ft | 152 kts | 24° |
| 2026-05-04 15:15 | 5.84127 | 116.01036 | 1624 ft | 141 kts | 24° |
| 2026-05-04 15:15 | 5.85033 | 116.01421 | 1444 ft | 142 kts | 24° |
| 2026-05-04 15:15 | 5.85937 | 116.01805 | 1277 ft | 141 kts | 24° |
| 2026-05-04 15:16 | 5.87729 | 116.02567 | 926 ft | 141 kts | 24° |
| 2026-05-04 15:16 | 5.88634 | 116.02951 | 731 ft | 138 kts | 24° |
| 2026-05-04 15:16 | 5.90394 | 116.03701 | 376 ft | 138 kts | 25° |
| 2026-05-04 15:17 | 5.91283 | 116.04086 | 178 ft | 138 kts | 24° |
| 2026-05-04 15:17 | 5.92878 | 116.04759 | 28 ft | 86 kts | 23° |
| 2026-05-04 15:17 | 5.93229 | 116.04906 | 28 ft | 33 kts | 24° |
| 2026-05-04 15:18 | 5.93430 | 116.04993 | 28 ft | 42 kts | 22° |
| 2026-05-04 15:18 | 5.93647 | 116.05084 | 28 ft | 28 kts | 26° |
| 2026-05-04 15:18 | 5.93698 | 116.05205 | 28 ft | 19 kts | 115° |
| 2026-05-04 15:19 | 5.93474 | 116.05199 | 28 ft | 18 kts | 202° |
| 2026-05-04 15:19 | 5.93349 | 116.05146 | 28 ft | 21 kts | 202° |
| 2026-05-04 15:19 | 5.93062 | 116.05025 | 28 ft | 25 kts | 201° |
| 2026-05-04 15:20 | 5.92906 | 116.04967 | 28 ft | 14 kts | 185° |
| 2026-05-04 15:20 | 5.92841 | 116.05017 | 28 ft | 12 kts | 121° |
| 2026-05-04 15:20 | 5.92794 | 116.05048 | 28 ft | 7 kts | 192° |
| 2026-05-04 15:20 | 5.92756 | 116.05028 | 28 ft | 6 kts | 212° |
| 2026-05-04 15:21 | 5.92717 | 116.05008 | 28 ft | 6 kts | 204° |
| 2026-05-04 15:21 | 5.92696 | 116.05007 | 28 ft | 1 kts | 144° |
| 2026-05-04 15:21 | 5.92688 | 116.05017 | 28 ft | 1 kts | 125° |
| 2026-05-04 15:22 | 5.92688 | 116.05019 | 28 ft | 1 kts | 120° |
| 2026-05-04 15:22 | 5.92677 | 116.05042 | 28 ft | 5 kts | 114° |
| 2026-05-04 15:22 | 5.92672 | 116.05056 | 28 ft | 0 kts | 110° |